sensor_id;sensor_type;location;lat;lon;timestamp;pressure;altitude;pressure_sealevel;temperature;humidity
58975;BME280;44751;52.236;5.178;2023-01-26T02:54:43;102309.78;;;-0.41;100.00
58975;BME280;44751;52.236;5.178;2023-01-26T02:57:27;102310.06;;;-0.47;100.00
58975;BME280;44751;52.236;5.178;2023-01-26T02:59:54;102310.66;;;-0.40;100.00
58975;BME280;44751;52.236;5.178;2023-01-26T03:02:20;102306.56;;;-0.47;100.00
58975;BME280;44751;52.236;5.178;2023-01-26T03:04:47;102306.22;;;-0.40;100.00
58975;BME280;44751;52.236;5.178;2023-01-26T03:07:13;102302.38;;;-0.53;100.00
58975;BME280;44751;52.236;5.178;2023-01-26T03:09:40;102307.50;;;-0.48;100.00
58975;BME280;44751;52.236;5.178;2023-01-26T03:12:06;102312.72;;;-0.47;100.00
58975;BME280;44751;52.236;5.178;2023-01-26T03:14:33;102310.50;;;-0.56;100.00
58975;BME280;44751;52.236;5.178;2023-01-26T03:16:59;102305.22;;;-0.37;100.00
58975;BME280;44751;52.236;5.178;2023-01-26T03:19:28;102303.00;;;-0.27;100.00
58975;BME280;44751;52.236;5.178;2023-01-26T03:22:12;102303.63;;;-0.41;100.00
58975;BME280;44751;52.236;5.178;2023-01-26T03:24:56;102290.13;;;-0.36;100.00
58975;BME280;44751;52.236;5.178;2023-01-26T03:27:45;102298.97;;;-0.36;100.00
58975;BME280;44751;52.236;5.178;2023-01-26T03:30:15;102303.31;;;-0.35;100.00
58975;BME280;44751;52.236;5.178;2023-01-26T03:32:42;102293.72;;;-0.37;100.00
58975;BME280;44751;52.236;5.178;2023-01-26T03:35:09;102303.41;;;-0.36;100.00
58975;BME280;44751;52.236;5.178;2023-01-26T03:37:40;102294.41;;;-0.32;100.00
58975;BME280;44751;52.236;5.178;2023-01-26T03:40:09;102306.22;;;-0.40;100.00
58975;BME280;44751;52.236;5.178;2023-01-26T03:42:53;102310.94;;;-0.27;100.00
58975;BME280;44751;52.236;5.178;2023-01-26T03:45:37;102303.06;;;-0.29;100.00
58975;BME280;44751;52.236;5.178;2023-01-26T03:48:21;102305.78;;;-0.30;100.00
58975;BME280;44751;52.236;5.178;2023-01-26T03:51:05;102299.97;;;-0.38;100.00
58975;BME280;44751;52.236;5.178;2023-01-26T03:53:49;102301.91;;;-0.42;100.00
58975;BME280;44751;52.236;5.178;2023-01-26T03:56:33;102298.41;;;-0.43;100.00
58975;BME280;44751;52.236;5.178;2023-01-26T03:59:04;102309.44;;;-0.33;100.00
58975;BME280;44751;52.236;5.178;2023-01-26T04:01:38;102310.38;;;-0.34;100.00
58975;BME280;44751;52.236;5.178;2023-01-26T04:04:05;102300.53;;;-0.32;100.00
58975;BME280;44751;52.236;5.178;2023-01-26T04:06:50;102302.25;;;-0.31;100.00
58975;BME280;44751;52.236;5.178;2023-01-26T04:09:35;102303.06;;;-0.29;100.00
58975;BME280;44751;52.236;5.178;2023-01-26T04:12:03;102318.75;;;-0.05;100.00
58975;BME280;44751;52.236;5.178;2023-01-26T04:14:30;102312.50;;;-0.04;100.00
58975;BME280;44751;52.236;5.178;2023-01-26T04:17:14;102310.22;;;-0.11;100.00
58975;BME280;44751;52.236;5.178;2023-01-26T04:19:58;102304.41;;;-0.01;100.00
58975;BME280;44751;52.236;5.178;2023-01-26T04:22:42;102299.88;;;0.02;100.00
58975;BME280;44751;52.236;5.178;2023-01-26T04:25:12;102309.91;;;-0.05;100.00
58975;BME280;44751;52.236;5.178;2023-01-26T04:27:39;102299.22;;;-0.04;100.00
58975;BME280;44751;52.236;5.178;2023-01-26T04:30:08;102303.53;;;-0.01;100.00
58975;BME280;44751;52.236;5.178;2023-01-26T04:32:34;102306.31;;;-0.04;100.00
58975;BME280;44751;52.236;5.178;2023-01-26T04:35:01;102302.22;;;0.08;100.00
58975;BME280;44751;52.236;5.178;2023-01-26T04:37:28;102299.38;;;0.12;100.00
58975;BME280;44751;52.236;5.178;2023-01-26T04:39:54;102305.41;;;-0.03;100.00
58975;BME280;44751;52.236;5.178;2023-01-26T04:42:21;102309.06;;;-0.06;100.00
58975;BME280;44751;52.236;5.178;2023-01-26T04:44:52;102307.59;;;0.06;100.00
58975;BME280;44751;52.236;5.178;2023-01-26T04:47:19;102301.41;;;0.25;100.00
58975;BME280;44751;52.236;5.178;2023-01-26T04:49:46;102284.22;;;0.15;100.00
58975;BME280;44751;52.236;5.178;2023-01-26T04:52:13;102284.63;;;0.24;100.00
58975;BME280;44751;52.236;5.178;2023-01-26T04:54:39;102302.13;;;0.29;100.00
58975;BME280;44751;52.236;5.178;2023-01-26T04:57:07;102291.81;;;0.22;100.00
58975;BME280;44751;52.236;5.178;2023-01-26T04:59:33;102284.69;;;0.23;100.00
58975;BME280;44751;52.236;5.178;2023-01-26T05:02:00;102280.63;;;0.16;100.00
58975;BME280;44751;52.236;5.178;2023-01-26T05:04:26;102281.34;;;0.19;100.00
58975;BME280;44751;52.236;5.178;2023-01-26T05:06:53;102283.75;;;0.24;100.00
58975;BME280;44751;52.236;5.178;2023-01-26T05:09:19;102283.28;;;0.16;100.00
58975;BME280;44751;52.236;5.178;2023-01-26T05:11:45;102279.38;;;0.05;100.00
58975;BME280;44751;52.236;5.178;2023-01-26T05:14:12;102280.53;;;0.17;100.00
58975;BME280;44751;52.236;5.178;2023-01-26T05:16:41;102273.44;;;0.18;100.00
58975;BME280;44751;52.236;5.178;2023-01-26T05:19:08;102287.66;;;0.17;100.00
58975;BME280;44751;52.236;5.178;2023-01-26T05:21:34;102278.69;;;0.19;100.00
58975;BME280;44751;52.236;5.178;2023-01-26T05:24:01;102273.47;;;0.35;100.00
58975;BME280;44751;52.236;5.178;2023-01-26T05:26:27;102281.44;;;0.35;100.00
58975;BME280;44751;52.236;5.178;2023-01-26T05:28:53;102280.81;;;0.30;100.00
58975;BME280;44751;52.236;5.178;2023-01-26T05:31:20;102284.34;;;0.31;100.00
58975;BME280;44751;52.236;5.178;2023-01-26T05:33:46;102293.94;;;0.51;100.00
58975;BME280;44751;52.236;5.178;2023-01-26T05:36:12;102286.03;;;0.32;100.00
58975;BME280;44751;52.236;5.178;2023-01-26T05:38:39;102280.13;;;0.44;100.00
58975;BME280;44751;52.236;5.178;2023-01-26T05:41:05;102286.44;;;0.42;100.00
58975;BME280;44751;52.236;5.178;2023-01-26T05:43:32;102291.44;;;0.48;100.00
58975;BME280;44751;52.236;5.178;2023-01-26T05:45:59;102289.88;;;0.44;100.00
58975;BME280;44751;52.236;5.178;2023-01-26T05:48:25;102295.44;;;0.39;100.00
58975;BME280;44751;52.236;5.178;2023-01-26T05:50:54;102298.16;;;0.37;100.00
58975;BME280;44751;52.236;5.178;2023-01-26T05:53:21;102297.59;;;0.31;100.00
58975;BME280;44751;52.236;5.178;2023-01-26T05:55:48;102306.66;;;0.27;100.00
58975;BME280;44751;52.236;5.178;2023-01-26T05:58:14;102292.72;;;0.21;100.00
58975;BME280;44751;52.236;5.178;2023-01-26T06:00:40;102295.47;;;0.20;100.00
58975;BME280;44751;52.236;5.178;2023-01-26T06:03:07;102299.59;;;0.25;100.00
58975;BME280;44751;52.236;5.178;2023-01-26T06:05:33;102307.88;;;0.19;100.00
58975;BME280;44751;52.236;5.178;2023-01-26T06:08:00;102302.91;;;0.31;100.00
58975;BME280;44751;52.236;5.178;2023-01-26T06:10:28;102303.88;;;0.10;100.00
58975;BME280;44751;52.236;5.178;2023-01-26T06:12:55;102302.03;;;0.12;100.00
58975;BME280;44751;52.236;5.178;2023-01-26T06:15:23;102308.66;;;0.21;100.00
58975;BME280;44751;52.236;5.178;2023-01-26T06:17:52;102312.88;;;0.25;100.00
58975;BME280;44751;52.236;5.178;2023-01-26T06:20:19;102313.28;;;0.35;100.00
58975;BME280;44751;52.236;5.178;2023-01-26T06:22:51;102309.00;;;0.33;100.00
58975;BME280;44751;52.236;5.178;2023-01-26T06:25:23;102311.59;;;0.52;100.00
58975;BME280;44751;52.236;5.178;2023-01-26T06:27:55;102302.78;;;0.51;100.00
58975;BME280;44751;52.236;5.178;2023-01-26T06:30:24;102305.75;;;0.63;100.00
58975;BME280;44751;52.236;5.178;2023-01-26T11:23:20;102450.75;;;6.23;100.00
58975;BME280;44751;52.236;5.178;2023-01-26T12:00:53;102435.78;;;6.45;100.00
58975;BME280;44751;52.236;5.178;2023-01-26T12:03:29;102430.66;;;6.66;100.00
58975;BME280;44751;52.236;5.178;2023-01-26T12:06:04;102432.91;;;6.72;100.00
58975;BME280;44751;52.236;5.178;2023-01-26T12:08:45;102424.78;;;6.61;100.00
58975;BME280;44751;52.236;5.178;2023-01-26T12:19:12;102431.59;;;6.90;100.00
58975;BME280;44751;52.236;5.178;2023-01-26T12:21:45;102429.25;;;7.09;100.00
58975;BME280;44751;52.236;5.178;2023-01-26T12:24:32;102419.97;;;7.14;100.00
58975;BME280;44751;52.236;5.178;2023-01-26T12:27:02;102415.09;;;7.07;100.00
58975;BME280;44751;52.236;5.178;2023-01-26T12:29:40;102413.75;;;7.02;100.00
58975;BME280;44751;52.236;5.178;2023-01-26T12:32:12;102415.56;;;7.01;100.00
58975;BME280;44751;52.236;5.178;2023-01-26T12:34:40;102407.41;;;7.03;100.00
58975;BME280;44751;52.236;5.178;2023-01-26T12:37:42;102400.06;;;6.93;100.00
58975;BME280;44751;52.236;5.178;2023-01-26T12:40:29;102396.16;;;6.97;100.00
58975;BME280;44751;52.236;5.178;2023-01-26T12:43:13;102390.72;;;7.10;100.00
58975;BME280;44751;52.236;5.178;2023-01-26T12:45:46;102389.41;;;7.16;100.00
58975;BME280;44751;52.236;5.178;2023-01-26T12:48:21;102391.56;;;7.11;100.00
58975;BME280;44751;52.236;5.178;2023-01-26T12:51:13;102392.00;;;6.93;100.00
58975;BME280;44751;52.236;5.178;2023-01-26T12:56:20;102377.13;;;6.89;100.00
58975;BME280;44751;52.236;5.178;2023-01-26T12:58:51;102386.44;;;6.72;100.00
58975;BME280;44751;52.236;5.178;2023-01-26T13:01:25;102372.91;;;6.49;100.00
58975;BME280;44751;52.236;5.178;2023-01-26T13:03:57;102377.25;;;6.63;100.00
58975;BME280;44751;52.236;5.178;2023-01-26T13:06:27;102382.03;;;6.71;100.00
58975;BME280;44751;52.236;5.178;2023-01-26T13:14:34;102376.75;;;6.94;100.00
58975;BME280;44751;52.236;5.178;2023-01-26T13:22:40;102370.38;;;6.83;100.00
58975;BME280;44751;52.236;5.178;2023-01-26T13:27:59;102377.44;;;6.84;100.00
58975;BME280;44751;52.236;5.178;2023-01-26T13:30:46;102378.22;;;6.87;100.00
58975;BME280;44751;52.236;5.178;2023-01-26T13:33:23;102384.66;;;6.84;100.00
58975;BME280;44751;52.236;5.178;2023-01-26T13:35:52;102372.19;;;6.83;100.00
58975;BME280;44751;52.236;5.178;2023-01-26T13:38:32;102383.63;;;6.74;100.00
58975;BME280;44751;52.236;5.178;2023-01-26T13:41:06;102384.09;;;6.67;100.00
58975;BME280;44751;52.236;5.178;2023-01-26T13:43:39;102390.38;;;6.79;100.00
58975;BME280;44751;52.236;5.178;2023-01-26T13:48:55;102387.13;;;6.63;100.00
58975;BME280;44751;52.236;5.178;2023-01-26T13:51:25;102383.75;;;6.72;100.00
58975;BME280;44751;52.236;5.178;2023-01-26T13:54:14;102395.66;;;6.92;100.00
58975;BME280;44751;52.236;5.178;2023-01-26T13:56:58;102386.38;;;6.61;100.00
58975;BME280;44751;52.236;5.178;2023-01-26T13:59:31;102384.56;;;6.61;100.00
58975;BME280;44751;52.236;5.178;2023-01-26T14:02:00;102383.31;;;6.54;100.00
58975;BME280;44751;52.236;5.178;2023-01-26T14:04:28;102383.59;;;6.62;100.00
58975;BME280;44751;52.236;5.178;2023-01-26T14:09:45;102379.19;;;6.61;100.00
58975;BME280;44751;52.236;5.178;2023-01-26T14:12:23;102377.25;;;6.63;100.00
58975;BME280;44751;52.236;5.178;2023-01-26T14:14:53;102373.06;;;6.59;100.00
58975;BME280;44751;52.236;5.178;2023-01-26T14:17:25;102375.19;;;6.67;100.00
58975;BME280;44751;52.236;5.178;2023-01-26T14:19:59;102383.47;;;6.64;100.00
58975;BME280;44751;52.236;5.178;2023-01-26T14:22:28;102379.03;;;6.51;100.00
58975;BME280;44751;52.236;5.178;2023-01-26T14:24:55;102391.63;;;6.62;100.00
58975;BME280;44751;52.236;5.178;2023-01-26T14:27:38;102380.44;;;6.44;100.00
58975;BME280;44751;52.236;5.178;2023-01-26T14:30:31;102385.69;;;6.45;100.00
58975;BME280;44751;52.236;5.178;2023-01-26T14:33:13;102389.47;;;6.43;100.00
58975;BME280;44751;52.236;5.178;2023-01-26T14:35:57;102382.72;;;6.37;100.00
58975;BME280;44751;52.236;5.178;2023-01-26T14:38:26;102378.25;;;6.38;100.00
58975;BME280;44751;52.236;5.178;2023-01-26T14:40:55;102373.81;;;6.37;100.00
58975;BME280;44751;52.236;5.178;2023-01-26T14:43:28;102379.97;;;6.26;100.00
58975;BME280;44751;52.236;5.178;2023-01-26T14:46:05;102377.63;;;6.21;100.00
58975;BME280;44751;52.236;5.178;2023-01-26T14:51:17;102392.53;;;6.25;100.00
58975;BME280;44751;52.236;5.178;2023-01-26T14:53:59;102401.09;;;6.30;100.00
58975;BME280;44751;52.236;5.178;2023-01-26T14:56:38;102397.66;;;6.28;100.00
58975;BME280;44751;52.236;5.178;2023-01-26T14:59:22;102393.59;;;6.23;100.00
58975;BME280;44751;52.236;5.178;2023-01-26T15:02:12;102386.03;;;6.16;100.00
58975;BME280;44751;52.236;5.178;2023-01-26T15:04:44;102383.78;;;6.10;100.00
58975;BME280;44751;52.236;5.178;2023-01-26T15:38:26;102414.38;;;5.81;100.00
58975;BME280;44751;52.236;5.178;2023-01-26T15:40:53;102415.56;;;5.77;100.00
58975;BME280;44751;52.236;5.178;2023-01-26T15:43:19;102407.16;;;5.82;100.00
58975;BME280;44751;52.236;5.178;2023-01-26T15:45:53;102411.38;;;5.73;100.00
58975;BME280;44751;52.236;5.178;2023-01-26T15:48:23;102415.75;;;5.74;100.00
58975;BME280;44751;52.236;5.178;2023-01-26T15:50:51;102415.22;;;5.69;100.00
58975;BME280;44751;52.236;5.178;2023-01-26T15:53:20;102416.50;;;5.76;100.00
58975;BME280;44751;52.236;5.178;2023-01-26T15:55:48;102422.50;;;5.67;100.00
58975;BME280;44751;52.236;5.178;2023-01-26T15:58:24;102409.97;;;5.67;100.00
58975;BME280;44751;52.236;5.178;2023-01-26T16:00:51;102418.13;;;5.66;100.00
58975;BME280;44751;52.236;5.178;2023-01-26T16:03:18;102416.94;;;5.57;100.00
58975;BME280;44751;52.236;5.178;2023-01-26T16:05:46;102415.44;;;5.53;100.00
58975;BME280;44751;52.236;5.178;2023-01-26T16:08:13;102414.16;;;5.46;100.00
58975;BME280;44751;52.236;5.178;2023-01-26T16:10:47;102406.66;;;5.64;100.00
58975;BME280;44751;52.236;5.178;2023-01-26T16:13:16;102424.66;;;5.49;100.00
58975;BME280;44751;52.236;5.178;2023-01-26T16:15:45;102422.72;;;5.51;100.00
58975;BME280;44751;52.236;5.178;2023-01-26T16:18:15;102423.78;;;5.48;100.00
58975;BME280;44751;52.236;5.178;2023-01-26T16:20:45;102422.19;;;5.46;100.00
58975;BME280;44751;52.236;5.178;2023-01-26T16:23:24;102423.25;;;5.56;100.00
58975;BME280;44751;52.236;5.178;2023-01-26T16:26:11;102428.28;;;5.48;100.00
58975;BME280;44751;52.236;5.178;2023-01-26T16:28:38;102420.91;;;5.51;100.00
58975;BME280;44751;52.236;5.178;2023-01-26T16:31:13;102411.56;;;5.44;100.00
58975;BME280;44751;52.236;5.178;2023-01-26T16:33:40;102413.41;;;5.43;100.00
58975;BME280;44751;52.236;5.178;2023-01-26T16:36:11;102417.78;;;5.45;100.00
58975;BME280;44751;52.236;5.178;2023-01-26T16:38:39;102429.44;;;5.56;100.00
58975;BME280;44751;52.236;5.178;2023-01-26T16:41:32;102422.94;;;5.48;100.00
58975;BME280;44751;52.236;5.178;2023-01-26T16:43:58;102420.16;;;5.36;100.00
58975;BME280;44751;52.236;5.178;2023-01-26T16:46:31;102422.63;;;5.39;100.00
58975;BME280;44751;52.236;5.178;2023-01-26T16:48:57;102421.44;;;5.43;100.00
58975;BME280;44751;52.236;5.178;2023-01-26T17:52:47;102420.66;;;5.28;100.00
58975;BME280;44751;52.236;5.178;2023-01-26T18:53:05;102423.97;;;5.19;100.00
58975;BME280;44751;52.236;5.178;2023-01-26T20:50:40;102436.41;;;4.37;100.00
58975;BME280;44751;52.236;5.178;2023-01-26T20:53:48;102440.72;;;4.40;100.00
58975;BME280;44751;52.236;5.178;2023-01-26T20:56:40;102439.44;;;4.46;100.00
58975;BME280;44751;52.236;5.178;2023-01-26T20:59:41;102437.19;;;4.39;100.00
58975;BME280;44751;52.236;5.178;2023-01-26T21:02:19;102431.94;;;4.38;100.00
58975;BME280;44751;52.236;5.178;2023-01-26T21:05:25;102435.56;;;4.37;100.00
58975;BME280;44751;52.236;5.178;2023-01-26T21:08:36;102427.38;;;4.40;100.00
58975;BME280;44751;52.236;5.178;2023-01-26T21:11:06;102429.25;;;4.38;100.00
